Time;durP1;ratioP1;P1;durP2;ratioP2;P2;SDS_P1;SDS_P2;PMS_P1;PMS_P2;Temp;Humidity;BMP_temperature;BMP_pressure;BME280_temperature;BME280_humidity;BME280_pressure;Samples;Min_cycle;Max_cycle;Signal;HPM_P1;HPM_P2
2022/10/23 00:01:20;;;;;;;0.50;0.40;;;14.30;99.90;;;;;;5052022;28;20445;-76
2022/10/23 00:03:47;;;;;;;0.50;0.40;;;14.30;99.90;;;;;;5051656;28;20536;-74
2022/10/23 00:06:15;;;;;;;0.50;0.40;;;14.20;99.90;;;;;;5051999;28;20429;-76
2022/10/23 00:08:42;;;;;;;0.50;0.40;;;14.20;99.90;;;;;;5055935;28;20478;-75
2022/10/23 00:11:11;;;;;;;0.50;0.47;;;14.20;99.90;;;;;;5055745;28;20437;-76
2022/10/23 00:13:39;;;;;;;0.50;0.30;;;14.10;99.90;;;;;;5055404;28;20530;-76
2022/10/23 00:16:07;;;;;;;0.50;0.50;;;14.10;99.90;;;;;;5055576;28;20843;-75
2022/10/23 00:18:34;;;;;;;0.50;0.40;;;14.10;99.90;;;;;;5055564;28;20467;-76
2022/10/23 00:21:02;;;;;;;0.50;0.40;;;14.00;99.90;;;;;;5055204;28;20437;-75
2022/10/23 00:23:29;;;;;;;0.50;0.40;;;14.00;99.90;;;;;;5055711;28;20527;-76
2022/10/23 00:25:56;;;;;;;0.50;0.40;;;14.00;99.90;;;;;;5055425;28;20437;-75
2022/10/23 00:28:24;;;;;;;0.50;0.40;;;14.10;99.90;;;;;;5055176;28;20441;-75
2022/10/23 00:30:51;;;;;;;0.50;0.30;;;14.10;99.90;;;;;;5055029;28;20508;-76
2022/10/23 00:33:18;;;;;;;0.50;0.40;;;14.00;99.90;;;;;;5055528;28;20443;-75
2022/10/23 00:35:44;;;;;;;0.50;0.40;;;14.00;99.90;;;;;;5055377;28;20441;-76
2022/10/23 00:38:12;;;;;;;0.50;0.30;;;14.00;99.90;;;;;;5055147;28;20465;-76
2022/10/23 00:40:41;;;;;;;0.50;0.33;;;14.00;99.90;;;;;;5056103;28;20433;-76
2022/10/23 00:43:16;;;;;;;0.50;0.47;;;14.00;99.90;;;;;;5055065;28;20441;-76
2022/10/23 00:45:45;;;;;;;0.50;0.40;;;14.00;99.90;;;;;;5055002;28;20420;-76
2022/10/23 00:48:12;;;;;;;0.50;0.40;;;14.00;99.90;;;;;;5055140;28;20814;-75
2022/10/23 00:50:39;;;;;;;0.50;0.40;;;14.00;99.90;;;;;;5054667;28;20938;-75
2022/10/23 00:53:06;;;;;;;0.60;0.50;;;13.90;99.90;;;;;;5054239;28;20445;-75
2022/10/23 00:55:35;;;;;;;0.50;0.40;;;13.90;99.90;;;;;;5054054;28;20433;-73
2022/10/23 00:58:02;;;;;;;0.50;0.40;;;13.90;99.90;;;;;;5054537;28;20483;-75
2022/10/23 01:00:40;;;;;;;0.50;0.40;;;13.90;99.90;;;;;;5055390;28;20479;-75
2022/10/23 01:03:08;;;;;;;0.50;0.40;;;13.80;99.90;;;;;;5053781;28;20424;-75
2022/10/23 01:05:44;;;;;;;0.50;0.40;;;13.80;99.90;;;;;;5054067;28;20439;-75
2022/10/23 01:08:20;;;;;;;0.50;0.40;;;13.90;99.90;;;;;;5053878;28;20437;-75
2022/10/23 01:10:51;;;;;;;0.50;0.40;;;13.90;99.90;;;;;;5054319;28;20448;-75
2022/10/23 01:13:27;;;;;;;0.50;0.40;;;13.90;99.90;;;;;;5054325;28;20425;-75
2022/10/23 01:16:01;;;;;;;0.50;0.40;;;13.90;99.90;;;;;;5053957;28;20516;-75
2022/10/23 01:18:37;;;;;;;0.50;0.40;;;13.90;99.90;;;;;;5052609;28;20440;-76
2022/10/23 01:21:07;;;;;;;0.50;0.40;;;13.90;99.90;;;;;;5053843;28;20425;-75
2022/10/23 01:23:56;;;;;;;0.50;0.30;;;13.90;99.90;;;;;;5053604;28;20447;-75
2022/10/23 01:26:46;;;;;;;0.50;0.40;;;14.00;99.90;;;;;;5053994;28;20421;-75
2022/10/23 01:29:20;;;;;;;0.50;0.30;;;14.00;99.90;;;;;;5053856;28;20461;-76
2022/10/23 01:31:50;;;;;;;0.50;0.37;;;14.00;99.90;;;;;;5053913;28;20436;-75
2022/10/23 01:34:22;;;;;;;0.60;0.60;;;13.90;99.90;;;;;;5053522;28;20796;-74
2022/10/23 01:36:52;;;;;;;0.50;0.40;;;14.00;99.90;;;;;;5053386;28;20461;-75
2022/10/23 01:39:23;;;;;;;0.60;0.50;;;14.00;99.90;;;;;;5053586;28;20465;-76
2022/10/23 01:41:55;;;;;;;0.50;0.30;;;14.00;99.90;;;;;;5054101;28;20428;-75
2022/10/23 01:44:27;;;;;;;0.50;0.40;;;14.10;99.90;;;;;;5053144;28;20445;-75
2022/10/23 01:46:55;;;;;;;0.60;0.60;;;14.00;99.90;;;;;;5053292;28;20428;-76
2022/10/23 01:49:24;;;;;;;0.50;0.40;;;14.10;99.90;;;;;;5053412;28;20456;-75
2022/10/23 01:51:54;;;;;;;0.50;0.40;;;14.00;99.90;;;;;;5053321;28;20454;-76
2022/10/23 01:54:22;;;;;;;0.50;0.40;;;14.10;99.90;;;;;;5053172;28;20792;-75
2022/10/23 01:56:51;;;;;;;0.50;0.40;;;14.00;99.90;;;;;;5053381;28;20488;-75
2022/10/23 01:59:22;;;;;;;0.50;0.30;;;14.00;99.90;;;;;;5052374;28;20465;-75
2022/10/23 02:01:55;;;;;;;0.50;0.30;;;14.00;99.90;;;;;;5053235;28;20903;-76
2022/10/23 02:04:29;;;;;;;0.50;0.40;;;14.10;99.90;;;;;;5053213;28;20433;-75
2022/10/23 02:06:56;;;;;;;0.50;0.30;;;14.10;99.90;;;;;;5053615;28;20428;-75
2022/10/23 02:09:23;;;;;;;0.50;0.30;;;14.00;99.90;;;;;;5052482;28;20457;-76
2022/10/23 02:11:54;;;;;;;0.50;0.40;;;14.00;99.90;;;;;;5053188;28;20536;-75
2022/10/23 02:14:29;;;;;;;0.50;0.40;;;14.00;99.90;;;;;;5052777;28;20430;-76
2022/10/23 02:17:05;;;;;;;0.50;0.40;;;14.00;99.90;;;;;;5053294;28;20478;-75
2022/10/23 02:19:41;;;;;;;0.50;0.40;;;13.90;99.90;;;;;;5052536;28;20555;-75
2022/10/23 02:22:11;;;;;;;0.50;0.40;;;13.80;99.90;;;;;;5052065;28;20443;-75
2022/10/23 02:24:43;;;;;;;0.50;0.40;;;13.80;99.90;;;;;;5052536;28;20973;-75
2022/10/23 02:27:14;;;;;;;0.50;0.50;;;13.80;99.90;;;;;;5053124;28;20988;-75
2022/10/23 02:29:45;;;;;;;0.50;0.40;;;13.90;99.90;;;;;;5052163;28;20471;-75
2022/10/23 02:32:15;;;;;;;0.50;0.40;;;13.90;99.90;;;;;;5052699;28;20544;-76
2022/10/23 02:34:42;;;;;;;0.50;0.40;;;13.80;99.90;;;;;;5051996;28;20916;-75
2022/10/23 02:37:09;;;;;;;0.50;0.30;;;13.90;99.90;;;;;;5052713;28;20905;-75
2022/10/23 02:39:36;;;;;;;0.50;0.40;;;13.90;99.90;;;;;;5052710;28;20543;-75
2022/10/23 02:42:11;;;;;;;0.50;0.40;;;13.90;99.90;;;;;;5052521;28;20441;-75
2022/10/23 02:44:46;;;;;;;0.50;0.40;;;13.90;99.90;;;;;;5051907;28;20425;-75
2022/10/23 02:47:30;;;;;;;0.50;0.40;;;13.90;99.90;;;;;;5052444;28;20421;-75
2022/10/23 02:50:04;;;;;;;0.50;0.33;;;14.00;99.90;;;;;;5052406;28;20838;-75
2022/10/23 02:52:41;;;;;;;0.50;0.40;;;14.00;99.90;;;;;;5052520;28;21010;-75
2022/10/23 02:55:20;;;;;;;0.50;0.30;;;13.90;99.90;;;;;;5051727;28;20441;-75
2022/10/23 02:57:52;;;;;;;0.50;0.40;;;13.90;99.90;;;;;;5051753;28;20456;-75
2022/10/23 03:00:21;;;;;;;0.50;0.40;;;13.90;99.90;;;;;;5051962;28;20472;-76
2022/10/23 03:02:55;;;;;;;0.50;0.40;;;14.00;99.90;;;;;;5052146;28;20800;-75
2022/10/23 03:05:25;;;;;;;0.50;0.40;;;13.90;99.90;;;;;;5052113;28;20495;-74
2022/10/23 03:07:52;;;;;;;0.50;0.40;;;14.00;99.90;;;;;;5051906;28;20437;-75
2022/10/23 03:10:19;;;;;;;0.50;0.40;;;14.00;99.90;;;;;;5052095;28;20830;-74
2022/10/23 03:12:47;;;;;;;0.50;0.40;;;13.90;99.90;;;;;;5051927;28;20439;-75
2022/10/23 03:15:15;;;;;;;0.50;0.40;;;13.80;99.90;;;;;;5051191;28;20441;-76
2022/10/23 03:17:42;;;;;;;0.50;0.40;;;13.70;99.90;;;;;;5051992;28;20509;-75
2022/10/23 03:20:11;;;;;;;3.70;2.67;;;13.70;99.90;;;;;;5051380;28;20457;-75
2022/10/23 03:22:38;;;;;;;0.50;0.40;;;13.70;99.90;;;;;;5051575;28;20441;-74
2022/10/23 03:25:06;;;;;;;0.50;0.40;;;13.60;99.90;;;;;;5051275;28;20436;-75
2022/10/23 03:27:33;;;;;;;0.50;0.40;;;13.50;99.90;;;;;;5051545;28;20437;-75
2022/10/23 03:30:00;;;;;;;0.50;0.40;;;13.40;99.90;;;;;;5051329;28;20465;-75
2022/10/23 03:32:27;;;;;;;0.50;0.40;;;13.40;99.90;;;;;;5051492;28;20437;-75
2022/10/23 03:34:54;;;;;;;0.50;0.40;;;13.30;99.90;;;;;;5051183;28;20442;-75
2022/10/23 03:37:22;;;;;;;0.50;0.40;;;13.20;99.90;;;;;;5051261;28;21009;-76
2022/10/23 03:39:49;;;;;;;0.50;0.40;;;13.10;99.90;;;;;;5051007;28;20464;-75
2022/10/23 03:42:16;;;;;;;0.50;0.40;;;13.10;99.90;;;;;;5050936;28;20437;-74
2022/10/23 03:44:42;;;;;;;0.50;0.30;;;13.00;99.90;;;;;;5051321;28;20441;-75
2022/10/23 03:47:10;;;;;;;0.50;0.40;;;13.00;99.90;;;;;;5051574;28;20532;-75
2022/10/23 03:49:38;;;;;;;0.50;0.40;;;13.10;99.90;;;;;;5051490;28;20461;-75
2022/10/23 03:52:04;;;;;;;0.50;0.40;;;13.00;99.90;;;;;;5051613;28;20531;-75
2022/10/23 03:54:33;;;;;;;0.50;0.40;;;13.00;99.90;;;;;;5050913;28;20527;-75
2022/10/23 03:57:00;;;;;;;0.50;0.40;;;13.00;99.90;;;;;;5051289;28;20437;-75
2022/10/23 03:59:28;;;;;;;0.50;0.40;;;13.00;99.90;;;;;;5050941;28;20469;-75
2022/10/23 04:01:55;;;;;;;0.50;0.40;;;13.00;99.90;;;;;;5051123;28;20814;-75
2022/10/23 04:04:22;;;;;;;0.50;0.30;;;13.00;99.90;;;;;;5050931;28;20837;-75
2022/10/23 04:06:48;;;;;;;0.50;0.40;;;13.00;99.90;;;;;;5051324;28;20516;-75
2022/10/23 04:09:15;;;;;;;0.50;0.40;;;13.00;99.90;;;;;;5051279;28;20452;-75
2022/10/23 04:11:43;;;;;;;0.50;0.40;;;13.00;99.90;;;;;;5051212;28;20877;-75
2022/10/23 04:14:11;;;;;;;0.50;0.40;;;12.90;99.90;;;;;;5050455;28;20444;-75
2022/10/23 04:16:38;;;;;;;0.50;0.40;;;12.90;99.90;;;;;;5051133;28;20437;-75
2022/10/23 04:19:05;;;;;;;0.50;0.40;;;12.90;99.90;;;;;;5050935;28;20485;-75
2022/10/23 04:21:32;;;;;;;0.50;0.40;;;12.90;99.90;;;;;;5050381;28;20437;-75
2022/10/23 04:23:59;;;;;;;0.50;0.40;;;12.90;99.90;;;;;;5050700;28;20441;-75
2022/10/23 04:26:25;;;;;;;0.50;0.40;;;12.90;99.90;;;;;;5052230;28;20433;-76
2022/10/23 04:28:54;;;;;;;0.50;0.40;;;12.90;99.90;;;;;;5050667;28;20472;-75
2022/10/23 04:31:21;;;;;;;0.50;0.50;;;12.90;99.90;;;;;;5051024;28;20441;-75
2022/10/23 04:33:47;;;;;;;0.50;0.40;;;12.80;99.90;;;;;;5050605;28;20438;-75
2022/10/23 04:36:14;;;;;;;0.50;0.40;;;12.80;99.90;;;;;;5050785;28;20890;-76
2022/10/23 04:38:41;;;;;;;0.50;0.40;;;12.80;99.90;;;;;;5051284;28;20485;-75
2022/10/23 04:41:08;;;;;;;0.50;0.40;;;12.90;99.90;;;;;;5050681;28;20476;-75
2022/10/23 04:43:35;;;;;;;0.50;0.40;;;12.80;99.90;;;;;;5050811;28;20432;-76
2022/10/23 04:46:03;;;;;;;0.50;0.40;;;12.80;99.90;;;;;;5050360;28;20432;-75
2022/10/23 04:48:30;;;;;;;0.50;0.40;;;12.90;99.90;;;;;;5050615;28;20460;-75
2022/10/23 04:50:57;;;;;;;0.50;0.30;;;12.90;99.90;;;;;;5050666;28;20441;-75
2022/10/23 04:53:24;;;;;;;0.50;0.50;;;12.80;99.90;;;;;;5051803;28;20437;-76
2022/10/23 04:55:52;;;;;;;0.50;0.40;;;12.90;99.90;;;;;;5053995;28;20441;-76
2022/10/23 04:58:20;;;;;;;0.50;0.40;;;12.90;99.90;;;;;;5054478;28;20473;-75
2022/10/23 05:00:48;;;;;;;0.50;0.40;;;12.90;99.90;;;;;;5053750;28;20445;-75
2022/10/23 05:03:16;;;;;;;0.50;0.40;;;12.90;99.90;;;;;;5054493;28;20823;-76
2022/10/23 05:05:43;;;;;;;0.50;0.40;;;12.90;99.90;;;;;;5053848;28;20445;-75
2022/10/23 05:08:10;;;;;;;0.50;0.40;;;12.90;99.90;;;;;;5053814;28;20437;-76
2022/10/23 05:10:38;;;;;;;0.50;0.40;;;12.90;99.90;;;;;;5054464;28;20444;-75
2022/10/23 05:13:05;;;;;;;0.50;0.40;;;12.90;99.90;;;;;;5054144;28;20595;-75
2022/10/23 05:15:31;;;;;;;0.50;0.40;;;12.90;99.90;;;;;;5053481;28;20441;-76
2022/10/23 05:18:04;;;;;;;0.50;0.40;;;12.90;99.90;;;;;;5053637;28;20473;-75
2022/10/23 05:20:36;;;;;;;0.50;0.40;;;13.00;99.90;;;;;;5053978;28;20713;-75
2022/10/23 05:23:06;;;;;;;0.50;0.40;;;13.00;99.90;;;;;;5053794;28;20447;-75
2022/10/23 05:25:33;;;;;;;0.50;0.40;;;13.00;99.90;;;;;;5054244;28;20929;-75
2022/10/23 05:27:59;;;;;;;0.50;0.40;;;13.10;99.90;;;;;;5053480;28;20441;-75
2022/10/23 05:30:26;;;;;;;0.50;0.40;;;13.10;99.90;;;;;;5053424;28;20460;-76
2022/10/23 05:32:54;;;;;;;0.50;0.40;;;13.10;99.90;;;;;;5053902;28;20448;-76
2022/10/23 05:35:23;;;;;;;0.50;0.40;;;13.00;99.90;;;;;;5053753;28;20540;-73
2022/10/23 05:37:54;;;;;;;1.57;1.47;;;13.00;99.90;;;;;;5053104;28;20480;-75
2022/10/23 05:40:21;;;;;;;0.50;0.40;;;13.00;99.90;;;;;;5053540;28;20453;-75
2022/10/23 05:42:48;;;;;;;0.50;0.40;;;13.00;99.90;;;;;;5053474;28;20437;-76
2022/10/23 05:45:15;;;;;;;2.40;2.20;;;12.90;99.90;;;;;;5053003;28;20433;-75
2022/10/23 05:47:44;;;;;;;0.50;0.40;;;12.90;99.90;;;;;;5053394;28;20441;-75
2022/10/23 05:50:11;;;;;;;0.50;0.40;;;12.90;99.90;;;;;;5053400;28;20457;-76
2022/10/23 05:52:37;;;;;;;0.50;0.40;;;13.00;99.90;;;;;;5053261;28;20444;-75
2022/10/23 05:55:06;;;;;;;0.50;0.40;;;13.00;99.90;;;;;;5052960;28;20447;-75
2022/10/23 05:57:34;;;;;;;0.50;0.40;;;13.00;99.90;;;;;;5053027;28;20510;-75
2022/10/23 06:00:01;;;;;;;0.50;0.40;;;13.10;99.90;;;;;;5052978;28;20487;-75
2022/10/23 06:02:27;;;;;;;0.50;0.40;;;13.00;99.90;;;;;;5053029;28;20445;-76
2022/10/23 06:04:54;;;;;;;0.50;0.50;;;13.10;99.90;;;;;;5052203;28;20950;-76
2022/10/23 06:07:24;;;;;;;0.50;0.40;;;13.10;99.90;;;;;;5053049;28;20441;-75
2022/10/23 06:09:51;;;;;;;0.50;0.40;;;13.20;99.90;;;;;;5052772;28;20457;-75
2022/10/23 06:12:20;;;;;;;0.50;0.40;;;13.30;99.90;;;;;;5052419;28;20476;-74
2022/10/23 06:14:47;;;;;;;0.50;0.40;;;13.30;99.90;;;;;;5052935;28;20449;-75
2022/10/23 06:17:13;;;;;;;0.50;0.30;;;13.30;99.90;;;;;;5053139;28;20443;-75
2022/10/23 06:19:40;;;;;;;0.50;0.40;;;13.40;99.90;;;;;;5052832;28;20479;-75
2022/10/23 06:22:07;;;;;;;0.50;0.40;;;13.60;99.90;;;;;;5051968;28;20445;-75
2022/10/23 06:24:34;;;;;;;0.50;0.40;;;13.70;99.90;;;;;;5052280;28;20457;-74
2022/10/23 06:27:01;;;;;;;0.50;0.40;;;13.80;99.90;;;;;;5053015;28;20529;-75
2022/10/23 06:29:29;;;;;;;0.50;0.40;;;13.90;99.90;;;;;;5052758;28;20500;-75
2022/10/23 06:31:56;;;;;;;2.20;0.80;;;14.00;99.90;;;;;;5052599;28;20441;-75
2022/10/23 06:34:22;;;;;;;0.50;0.40;;;14.10;99.90;;;;;;5051956;28;20950;-75
2022/10/23 06:36:49;;;;;;;0.50;0.30;;;14.20;99.90;;;;;;5053102;28;20535;-76
2022/10/23 06:39:16;;;;;;;0.50;0.40;;;14.20;99.90;;;;;;5052695;28;20485;-75
2022/10/23 06:41:44;;;;;;;0.50;0.30;;;14.30;99.90;;;;;;5052883;28;20930;-75
2022/10/23 06:44:11;;;;;;;0.50;0.40;;;14.40;99.90;;;;;;5051858;28;20452;-75
2022/10/23 06:46:39;;;;;;;0.50;0.40;;;14.50;99.90;;;;;;5052372;28;20444;-75
2022/10/23 06:49:06;;;;;;;0.50;0.40;;;14.50;99.90;;;;;;5052265;28;20457;-75
2022/10/23 06:51:32;;;;;;;0.50;0.40;;;14.50;99.90;;;;;;5052519;28;21067;-75
2022/10/23 06:53:59;;;;;;;0.50;0.37;;;14.60;99.90;;;;;;5052053;28;20545;-75
2022/10/23 06:56:28;;;;;;;0.50;0.40;;;14.60;99.90;;;;;;5052802;28;20945;-75
2022/10/23 06:58:54;;;;;;;1.27;0.93;;;14.70;99.90;;;;;;5051976;28;20477;-75
2022/10/23 07:01:22;;;;;;;0.50;0.40;;;14.80;99.90;;;;;;5053486;28;21000;-75
2022/10/23 07:03:50;;;;;;;0.50;0.40;;;14.80;99.90;;;;;;5052853;28;20451;-75
2022/10/23 07:06:17;;;;;;;0.50;0.40;;;14.90;99.90;;;;;;5052631;28;20877;-75
2022/10/23 07:08:43;;;;;;;0.50;0.40;;;14.90;99.90;;;;;;5052796;28;20464;-74
2022/10/23 07:11:11;;;;;;;0.50;0.30;;;15.00;99.90;;;;;;5052794;28;20480;-75
2022/10/23 07:13:39;;;;;;;0.50;0.40;;;15.00;99.90;;;;;;5052863;28;20434;-75
2022/10/23 07:16:11;;;;;;;0.50;0.40;;;15.00;99.90;;;;;;5051411;28;20437;-75
2022/10/23 07:18:39;;;;;;;0.50;0.30;;;15.00;99.90;;;;;;5051497;28;20555;-75
2022/10/23 07:21:07;;;;;;;0.50;0.40;;;15.10;99.90;;;;;;5051007;28;20439;-75
2022/10/23 07:23:34;;;;;;;2.70;1.33;;;15.10;99.90;;;;;;5052162;28;20442;-75
2022/10/23 07:26:06;;;;;;;0.50;0.30;;;15.10;99.90;;;;;;5051550;28;20437;-76
2022/10/23 07:28:34;;;;;;;0.50;0.40;;;15.20;99.90;;;;;;5051735;28;20531;-76
2022/10/23 07:31:01;;;;;;;0.50;0.40;;;15.20;99.90;;;;;;5051988;28;20453;-75
2022/10/23 07:33:28;;;;;;;0.50;0.30;;;15.30;99.90;;;;;;5051738;28;20437;-75
2022/10/23 07:35:55;;;;;;;0.50;0.40;;;15.30;99.90;;;;;;5051897;28;20484;-75
2022/10/23 07:38:23;;;;;;;0.50;0.30;;;15.40;99.90;;;;;;5052278;28;20445;-76
2022/10/23 07:40:50;;;;;;;0.50;0.30;;;15.40;99.90;;;;;;5051406;28;20441;-75
2022/10/23 07:43:19;;;;;;;0.50;0.40;;;15.50;99.90;;;;;;5051591;28;21021;-76
2022/10/23 07:45:47;;;;;;;0.50;0.30;;;15.60;99.90;;;;;;5051318;28;20441;-75
2022/10/23 07:48:14;;;;;;;0.50;0.40;;;15.60;99.90;;;;;;5051746;28;20786;-75
2022/10/23 07:50:41;;;;;;;0.50;0.40;;;15.70;99.90;;;;;;5051652;28;20888;-76
2022/10/23 07:53:10;;;;;;;0.50;0.30;;;15.80;99.90;;;;;;5051380;28;20532;-75
2022/10/23 07:55:39;;;;;;;0.50;0.30;;;15.90;99.90;;;;;;5051309;28;20437;-76
2022/10/23 07:58:05;;;;;;;0.50;0.40;;;16.00;99.90;;;;;;5051305;28;20809;-75
2022/10/23 08:00:32;;;;;;;0.50;0.30;;;16.10;99.90;;;;;;5050966;28;20559;-75
2022/10/23 08:02:59;;;;;;;0.50;0.40;;;16.20;99.90;;;;;;5051212;28;20523;-75
2022/10/23 08:05:26;;;;;;;0.50;0.40;;;16.30;99.90;;;;;;5050802;28;20810;-75
2022/10/23 08:07:53;;;;;;;0.50;0.30;;;16.40;99.90;;;;;;5051180;28;20536;-76
2022/10/23 08:10:19;;;;;;;0.50;0.30;;;16.50;99.90;;;;;;5051766;28;20456;-76
2022/10/23 08:12:48;;;;;;;0.50;0.40;;;16.60;99.90;;;;;;5050827;28;20441;-75
2022/10/23 08:15:14;;;;;;;0.50;0.30;;;16.70;99.90;;;;;;5050528;28;20433;-74
2022/10/23 08:17:41;;;;;;;0.50;0.30;;;16.90;99.90;;;;;;5051010;28;20432;-76
2022/10/23 08:20:09;;;;;;;0.50;0.30;;;17.00;99.90;;;;;;5050776;28;20560;-75
2022/10/23 08:22:37;;;;;;;0.50;0.30;;;17.10;99.90;;;;;;5051167;28;20443;-75
2022/10/23 08:25:05;;;;;;;0.50;0.30;;;17.20;99.90;;;;;;5050847;28;20475;-75
2022/10/23 08:27:32;;;;;;;0.50;0.33;;;17.40;99.90;;;;;;5051981;28;20441;-74
2022/10/23 08:30:00;;;;;;;0.50;0.30;;;17.80;99.90;;;;;;5055300;28;20453;-76
2022/10/23 08:32:29;;;;;;;0.50;0.40;;;18.30;99.90;;;;;;5056967;28;20532;-76
2022/10/23 08:34:56;;;;;;;0.50;0.40;;;18.80;99.90;;;;;;5054704;28;20436;-75
2022/10/23 08:37:23;;;;;;;0.50;0.30;;;19.30;99.90;;;;;;5054956;28;20445;-75
2022/10/23 08:39:49;;;;;;;0.50;0.40;;;19.60;99.90;;;;;;5055005;28;20481;-75
2022/10/23 08:42:22;;;;;;;0.50;0.40;;;19.90;99.90;;;;;;5054812;28;20436;-76
2022/10/23 08:44:57;;;;;;;0.50;0.30;;;20.20;99.90;;;;;;5054776;28;20436;-75
2022/10/23 08:47:29;;;;;;;0.50;0.40;;;20.70;99.90;;;;;;5055083;28;20781;-76
2022/10/23 08:50:00;;;;;;;0.50;0.30;;;21.40;99.90;;;;;;5054457;28;20453;-75
2022/10/23 08:52:44;;;;;;;0.50;0.40;;;21.20;99.90;;;;;;5054992;28;20436;-75
2022/10/23 08:55:18;;;;;;;0.50;0.30;;;20.70;99.90;;;;;;5054274;28;20451;-75
2022/10/23 08:57:51;;;;;;;0.50;0.30;;;20.70;99.90;;;;;;5056874;28;20496;-75
2022/10/23 09:00:18;;;;;;;0.50;0.40;;;20.60;99.90;;;;;;5063418;28;20575;-75
2022/10/23 09:02:49;;;;;;;0.50;0.30;;;20.60;99.90;;;;;;5054625;28;20443;-75
2022/10/23 09:05:19;;;;;;;0.50;0.30;;;20.50;99.90;;;;;;5054205;28;20421;-76
2022/10/23 09:08:04;;;;;;;0.97;0.97;;;20.30;99.90;;;;;;5054734;28;20437;-76
2022/10/23 09:10:46;;;;;;;0.50;0.40;;;20.00;99.90;;;;;;5054584;28;20453;-75
2022/10/23 09:13:33;;;;;;;0.50;0.40;;;19.80;99.90;;;;;;5054318;28;20426;-74
2022/10/23 09:16:07;;;;;;;0.50;0.30;;;19.40;99.90;;;;;;5053941;28;20745;-74
2022/10/23 09:18:35;;;;;;;0.50;0.30;;;19.20;99.90;;;;;;5054203;28;20456;-74
2022/10/23 09:21:02;;;;;;;0.50;0.30;;;19.10;99.90;;;;;;5053560;28;20524;-74
2022/10/23 09:23:29;;;;;;;0.50;0.30;;;19.00;99.90;;;;;;5054010;28;20432;-74
2022/10/23 09:25:56;;;;;;;0.50;0.40;;;19.00;99.90;;;;;;5054267;28;20449;-75
2022/10/23 09:28:25;;;;;;;0.50;0.33;;;19.00;99.90;;;;;;5053562;28;20502;-75
2022/10/23 09:30:52;;;;;;;0.50;0.40;;;19.00;99.90;;;;;;5053955;28;20433;-74
2022/10/23 09:33:23;;;;;;;0.50;0.30;;;19.00;99.90;;;;;;5053944;28;20439;-74
2022/10/23 09:35:57;;;;;;;0.50;0.30;;;18.90;99.90;;;;;;5053223;28;20447;-74
2022/10/23 09:38:28;;;;;;;0.50;0.40;;;18.90;99.90;;;;;;5053015;28;21017;-74
2022/10/23 09:40:55;;;;;;;0.50;0.30;;;19.00;99.90;;;;;;5053061;28;20479;-74
2022/10/23 09:43:26;;;;;;;0.50;0.40;;;19.00;99.90;;;;;;5054004;28;20456;-74
2022/10/23 09:45:58;;;;;;;0.50;0.30;;;19.10;99.90;;;;;;5053502;28;20542;-74
2022/10/23 09:48:24;;;;;;;0.50;0.30;;;19.20;99.90;;;;;;5053523;28;20437;-74
2022/10/23 09:50:55;;;;;;;0.50;0.30;;;19.20;99.90;;;;;;5053605;28;20441;-74
2022/10/23 09:53:29;;;;;;;0.50;0.30;;;19.30;99.90;;;;;;5053331;28;20441;-73
2022/10/23 09:55:59;;;;;;;0.50;0.30;;;19.40;99.90;;;;;;5053019;28;20433;-74
2022/10/23 09:58:33;;;;;;;0.50;0.40;;;19.50;99.90;;;;;;5053323;28;20441;-74
2022/10/23 10:01:00;;;;;;;0.50;0.30;;;19.60;99.90;;;;;;5053102;28;20837;-74
2022/10/23 10:03:26;;;;;;;0.50;0.30;;;19.70;99.90;;;;;;5053334;28;20807;-74
2022/10/23 10:05:57;;;;;;;0.50;0.30;;;19.80;99.90;;;;;;5051973;28;20459;-75
2022/10/23 10:08:32;;;;;;;0.50;0.40;;;19.90;99.90;;;;;;5052980;28;20523;-75
2022/10/23 10:11:03;;;;;;;0.50;0.30;;;20.00;99.90;;;;;;5052944;28;20455;-74
2022/10/23 10:13:52;;;;;;;0.50;0.30;;;20.10;99.90;;;;;;5052828;28;20459;-74
2022/10/23 10:16:32;;;;;;;0.50;0.40;;;20.30;99.90;;;;;;5053121;28;20836;-75
2022/10/23 10:19:06;;;;;;;0.50;0.40;;;20.60;99.90;;;;;;5053034;28;20453;-74
2022/10/23 10:21:41;;;;;;;0.50;0.37;;;20.70;99.90;;;;;;5052218;28;20440;-74
2022/10/23 10:24:16;;;;;;;0.50;0.30;;;20.70;99.90;;;;;;5052458;28;20899;-74
2022/10/23 10:26:54;;;;;;;0.50;0.40;;;20.60;99.90;;;;;;5052840;28;20438;-75
2022/10/23 10:29:30;;;;;;;0.50;0.40;;;20.50;99.90;;;;;;5052993;28;20548;-74
2022/10/23 10:32:09;;;;;;;0.50;0.30;;;20.40;99.90;;;;;;5052416;28;20426;-76
2022/10/23 10:34:43;;;;;;;0.50;0.40;;;20.40;99.90;;;;;;5052906;28;20425;-74
2022/10/23 10:37:24;;;;;;;0.50;0.40;;;20.40;99.90;;;;;;5052751;28;20603;-75
2022/10/23 10:40:01;;;;;;;0.50;0.40;;;20.40;99.90;;;;;;5052363;28;20477;-75
2022/10/23 10:42:48;;;;;;;0.50;0.30;;;20.40;99.90;;;;;;5052312;28;20447;-74
2022/10/23 10:45:25;;;;;;;0.50;0.40;;;20.30;99.90;;;;;;5051829;28;20861;-74
2022/10/23 10:48:10;;;;;;;0.50;0.40;;;20.30;99.90;;;;;;5052682;28;20521;-74
2022/10/23 10:50:43;;;;;;;0.50;0.40;;;20.30;99.90;;;;;;5052198;28;20549;-75
2022/10/23 10:53:24;;;;;;;0.50;0.40;;;20.30;99.90;;;;;;5051824;28;20441;-74
2022/10/23 10:55:53;;;;;;;1.43;1.07;;;20.30;99.90;;;;;;5051990;28;20433;-74
2022/10/23 10:58:27;;;;;;;0.50;0.40;;;20.30;99.90;;;;;;5052158;28;20445;-74
2022/10/23 11:00:58;;;;;;;0.50;0.40;;;20.30;99.90;;;;;;5051987;28;20481;-74
2022/10/23 11:03:35;;;;;;;0.50;0.30;;;20.40;99.90;;;;;;5052292;28;20413;-74
2022/10/23 11:06:04;;;;;;;0.50;0.30;;;20.40;99.90;;;;;;5051548;28;21114;-74
2022/10/23 11:08:37;;;;;;;0.50;0.40;;;20.40;99.90;;;;;;5052005;28;20818;-74
2022/10/23 11:11:09;;;;;;;0.50;0.37;;;20.40;99.90;;;;;;5051960;28;20432;-74
2022/10/23 11:13:39;;;;;;;0.83;0.83;;;20.40;99.90;;;;;;5051654;28;20441;-74
2022/10/23 11:16:11;;;;;;;0.50;0.30;;;20.40;99.90;;;;;;5051633;28;20479;-75
2022/10/23 11:18:42;;;;;;;0.50;0.30;;;20.50;99.90;;;;;;5051940;28;20559;-75
2022/10/23 11:21:28;;;;;;;0.73;0.60;;;20.50;99.90;;;;;;5051436;28;20839;-75
2022/10/23 11:24:28;;;;;;;1.10;0.70;;;20.70;99.90;;;;;;5051151;28;20890;-74
2022/10/23 11:27:13;;;;;;;0.50;0.30;;;20.80;99.90;;;;;;5047696;28;20938;-74
2022/10/23 11:30:01;;;;;;;0.60;0.40;;;20.90;99.90;;;;;;5051567;28;20463;-75
2022/10/23 11:33:11;;;;;;;0.50;0.30;;;20.80;99.90;;;;;;5051363;28;20421;-75
2022/10/23 11:35:53;;;;;;;0.50;0.33;;;20.90;99.90;;;;;;5051067;28;20950;-75
2022/10/23 11:38:25;;;;;;;0.50;0.30;;;20.90;99.90;;;;;;5051142;28;20443;-75
2022/10/23 11:40:57;;;;;;;0.60;0.40;;;21.00;99.90;;;;;;5051494;28;20456;-76
2022/10/23 11:43:28;;;;;;;0.50;0.33;;;21.00;99.90;;;;;;5051613;28;20449;-75
2022/10/23 11:45:55;;;;;;;0.50;0.30;;;21.10;99.90;;;;;;5051281;28;20443;-75
2022/10/23 11:48:23;;;;;;;0.50;0.30;;;21.10;99.90;;;;;;5051408;28;20467;-75
2022/10/23 11:50:53;;;;;;;0.50;0.30;;;21.30;99.90;;;;;;5050859;28;20433;-74
2022/10/23 11:53:37;;;;;;;0.70;0.40;;;21.20;99.90;;;;;;5051327;28;20491;-74
2022/10/23 11:56:24;;;;;;;0.50;0.30;;;21.00;99.90;;;;;;5051210;28;20417;-77
2022/10/23 11:58:52;;;;;;;0.50;0.30;;;20.90;99.90;;;;;;5051202;28;20547;-74
2022/10/23 12:01:36;;;;;;;0.70;0.53;;;20.80;99.90;;;;;;5050963;28;20672;-72
2022/10/23 12:04:14;;;;;;;0.60;0.60;;;20.70;99.90;;;;;;5057414;28;20433;-75
2022/10/23 12:06:44;;;;;;;0.50;0.40;;;20.70;99.90;;;;;;5057577;28;20443;-74
2022/10/23 12:09:28;;;;;;;0.80;0.70;;;20.60;99.90;;;;;;5057804;28;20453;-74
2022/10/23 12:12:27;;;;;;;0.50;0.30;;;20.50;99.90;;;;;;5057598;28;20451;-74
2022/10/23 12:14:54;;;;;;;5.20;0.63;;;20.30;99.90;;;;;;5056669;28;20452;-74
2022/10/23 12:17:32;;;;;;;0.50;0.30;;;20.30;99.90;;;;;;5057613;28;20428;-74
2022/10/23 12:20:19;;;;;;;0.50;0.30;;;20.30;99.90;;;;;;5057694;28;20476;-75
2022/10/23 12:22:54;;;;;;;0.50;0.40;;;20.40;99.90;;;;;;5057688;28;20436;-72
2022/10/23 12:25:31;;;;;;;0.50;0.40;;;20.70;99.90;;;;;;5057265;28;20958;-75
2022/10/23 12:28:05;;;;;;;0.60;0.60;;;20.90;99.90;;;;;;5057990;28;20447;-75
2022/10/23 12:30:42;;;;;;;0.50;0.30;;;21.00;99.90;;;;;;5057409;28;20810;-75
2022/10/23 12:33:17;;;;;;;0.50;0.30;;;21.00;99.90;;;;;;5057990;28;20440;-75
2022/10/23 12:36:00;;;;;;;0.50;0.40;;;21.20;99.90;;;;;;5056843;28;20425;-75
2022/10/23 12:38:28;;;;;;;0.50;0.30;;;21.40;99.90;;;;;;5057545;28;20953;-75
2022/10/23 12:41:00;;;;;;;0.50;0.37;;;21.60;99.90;;;;;;5057420;28;20851;-75
2022/10/23 12:43:32;;;;;;;0.50;0.40;;;21.70;99.90;;;;;;5057442;28;20448;-75
2022/10/23 12:46:03;;;;;;;0.50;0.50;;;21.50;99.90;;;;;;5056856;28;20421;-74
2022/10/23 12:48:32;;;;;;;0.60;0.50;;;21.40;99.90;;;;;;5057662;28;20507;-75
2022/10/23 12:50:59;;;;;;;0.50;0.40;;;21.30;99.90;;;;;;5057953;28;20764;-74
2022/10/23 12:53:26;;;;;;;0.50;0.30;;;21.10;99.90;;;;;;5057298;28;20957;-75
2022/10/23 12:55:57;;;;;;;0.50;0.40;;;21.10;99.90;;;;;;5057370;28;20564;-74
2022/10/23 12:58:26;;;;;;;0.50;0.30;;;21.10;99.90;;;;;;5057163;28;20420;-75
2022/10/23 13:00:58;;;;;;;0.50;0.40;;;21.20;99.90;;;;;;5058610;28;20918;-75
2022/10/23 13:03:27;;;;;;;0.73;0.70;;;21.20;99.90;;;;;;5057340;28;20907;-74
2022/10/23 13:05:57;;;;;;;0.50;0.40;;;21.20;99.90;;;;;;5057305;28;20810;-74